sensor_id;sensor_type;location;lat;lon;timestamp;temperature;humidity
22827;DHT22;11580;52.562;13.418;2023-03-21T00:00:43;14.10;32.70
22827;DHT22;11580;52.562;13.418;2023-03-21T00:03:10;14.10;32.60
22827;DHT22;11580;52.562;13.418;2023-03-21T00:05:39;14.10;32.60
22827;DHT22;11580;52.562;13.418;2023-03-21T00:08:07;14.10;33.00
22827;DHT22;11580;52.562;13.418;2023-03-21T00:10:35;14.10;32.70
22827;DHT22;11580;52.562;13.418;2023-03-21T00:13:03;14.10;32.60
22827;DHT22;11580;52.562;13.418;2023-03-21T00:15:30;14.20;32.30
22827;DHT22;11580;52.562;13.418;2023-03-21T00:17:57;13.90;32.50
22827;DHT22;11580;52.562;13.418;2023-03-21T00:20:28;14.10;32.70
22827;DHT22;11580;52.562;13.418;2023-03-21T00:22:56;14.10;32.60
22827;DHT22;11580;52.562;13.418;2023-03-21T00:25:23;14.10;32.40
22827;DHT22;11580;52.562;13.418;2023-03-21T00:27:50;14.00;32.30
22827;DHT22;11580;52.562;13.418;2023-03-21T00:30:19;14.10;32.50
22827;DHT22;11580;52.562;13.418;2023-03-21T00:32:48;14.00;32.10
22827;DHT22;11580;52.562;13.418;2023-03-21T00:35:16;14.00;32.50
22827;DHT22;11580;52.562;13.418;2023-03-21T00:37:43;14.00;32.60
22827;DHT22;11580;52.562;13.418;2023-03-21T00:40:12;14.00;32.70
22827;DHT22;11580;52.562;13.418;2023-03-21T00:42:39;14.00;32.50
22827;DHT22;11580;52.562;13.418;2023-03-21T00:45:07;13.90;32.60
22827;DHT22;11580;52.562;13.418;2023-03-21T00:47:36;13.90;32.60
22827;DHT22;11580;52.562;13.418;2023-03-21T00:50:05;14.10;32.60
22827;DHT22;11580;52.562;13.418;2023-03-21T00:52:33;13.90;32.70
22827;DHT22;11580;52.562;13.418;2023-03-21T00:55:00;13.90;32.80
22827;DHT22;11580;52.562;13.418;2023-03-21T00:57:27;13.90;33.50
22827;DHT22;11580;52.562;13.418;2023-03-21T00:59:55;13.90;32.90
22827;DHT22;11580;52.562;13.418;2023-03-21T01:02:24;13.90;33.00
22827;DHT22;11580;52.562;13.418;2023-03-21T01:04:53;13.90;33.70
22827;DHT22;11580;52.562;13.418;2023-03-21T01:07:20;13.90;33.50
22827;DHT22;11580;52.562;13.418;2023-03-21T01:09:47;13.90;33.10
22827;DHT22;11580;52.562;13.418;2023-03-21T01:12:17;13.90;33.10
22827;DHT22;11580;52.562;13.418;2023-03-21T01:14:44;13.90;33.20
22827;DHT22;11580;52.562;13.418;2023-03-21T01:17:12;13.90;33.30
22827;DHT22;11580;52.562;13.418;2023-03-21T01:19:39;13.90;33.40
22827;DHT22;11580;52.562;13.418;2023-03-21T01:22:07;13.90;33.50
22827;DHT22;11580;52.562;13.418;2023-03-21T01:24:35;13.90;33.20
22827;DHT22;11580;52.562;13.418;2023-03-21T01:27:02;13.90;33.50
22827;DHT22;11580;52.562;13.418;2023-03-21T01:29:30;14.00;33.60
22827;DHT22;11580;52.562;13.418;2023-03-21T01:31:57;13.90;33.50
22827;DHT22;11580;52.562;13.418;2023-03-21T01:34:25;13.90;33.40
22827;DHT22;11580;52.562;13.418;2023-03-21T01:36:53;13.90;33.20
22827;DHT22;11580;52.562;13.418;2023-03-21T01:39:21;14.00;34.00
22827;DHT22;11580;52.562;13.418;2023-03-21T01:41:50;14.00;33.70
22827;DHT22;11580;52.562;13.418;2023-03-21T01:44:20;14.10;33.20
22827;DHT22;11580;52.562;13.418;2023-03-21T01:46:49;13.90;33.10
22827;DHT22;11580;52.562;13.418;2023-03-21T01:49:40;13.90;33.10
22827;DHT22;11580;52.562;13.418;2023-03-21T01:52:17;13.90;32.90
22827;DHT22;11580;52.562;13.418;2023-03-21T01:54:50;13.90;32.80
22827;DHT22;11580;52.562;13.418;2023-03-21T01:57:24;13.90;32.80
22827;DHT22;11580;52.562;13.418;2023-03-21T02:00:00;13.90;32.70
22827;DHT22;11580;52.562;13.418;2023-03-21T02:02:47;13.80;32.80
22827;DHT22;11580;52.562;13.418;2023-03-21T02:05:50;13.80;32.90
22827;DHT22;11580;52.562;13.418;2023-03-21T02:08:24;13.80;32.30
22827;DHT22;11580;52.562;13.418;2023-03-21T02:10:53;13.80;33.90
22827;DHT22;11580;52.562;13.418;2023-03-21T02:13:34;13.80;33.00
22827;DHT22;11580;52.562;13.418;2023-03-21T02:16:10;13.80;33.40
22827;DHT22;11580;52.562;13.418;2023-03-21T02:18:46;13.80;32.60
22827;DHT22;11580;52.562;13.418;2023-03-21T02:21:47;13.80;33.70
22827;DHT22;11580;52.562;13.418;2023-03-21T02:24:51;13.80;32.30
22827;DHT22;11580;52.562;13.418;2023-03-21T02:27:44;13.80;32.60
22827;DHT22;11580;52.562;13.418;2023-03-21T02:30:38;13.80;32.70
22827;DHT22;11580;52.562;13.418;2023-03-21T02:37:01;13.80;32.40
22827;DHT22;11580;52.562;13.418;2023-03-21T02:39:45;13.80;32.50
22827;DHT22;11580;52.562;13.418;2023-03-21T02:42:26;13.80;32.80
22827;DHT22;11580;52.562;13.418;2023-03-21T02:45:01;13.80;33.90
22827;DHT22;11580;52.562;13.418;2023-03-21T02:47:39;13.80;34.20
22827;DHT22;11580;52.562;13.418;2023-03-21T02:50:15;13.80;33.50
22827;DHT22;11580;52.562;13.418;2023-03-21T02:52:51;13.70;34.00
22827;DHT22;11580;52.562;13.418;2023-03-21T02:55:23;13.70;34.00
22827;DHT22;11580;52.562;13.418;2023-03-21T02:57:58;13.90;33.50
22827;DHT22;11580;52.562;13.418;2023-03-21T03:00:30;13.70;33.60
22827;DHT22;11580;52.562;13.418;2023-03-21T03:03:00;13.70;33.50
22827;DHT22;11580;52.562;13.418;2023-03-21T03:05:30;13.80;34.00
22827;DHT22;11580;52.562;13.418;2023-03-21T03:08:13;13.60;33.60
22827;DHT22;11580;52.562;13.418;2023-03-21T03:11:05;13.60;33.10
22827;DHT22;11580;52.562;13.418;2023-03-21T03:13:51;13.60;33.10
22827;DHT22;11580;52.562;13.418;2023-03-21T03:16:32;13.60;33.40
22827;DHT22;11580;52.562;13.418;2023-03-21T03:19:10;13.50;33.80
22827;DHT22;11580;52.562;13.418;2023-03-21T03:21:43;13.50;34.10
22827;DHT22;11580;52.562;13.418;2023-03-21T03:24:23;13.60;34.30
22827;DHT22;11580;52.562;13.418;2023-03-21T03:26:55;13.60;34.00
22827;DHT22;11580;52.562;13.418;2023-03-21T03:29:29;13.50;34.40
22827;DHT22;11580;52.562;13.418;2023-03-21T03:32:01;13.50;35.10
22827;DHT22;11580;52.562;13.418;2023-03-21T03:34:38;13.50;34.30
22827;DHT22;11580;52.562;13.418;2023-03-21T03:37:11;13.50;34.40
22827;DHT22;11580;52.562;13.418;2023-03-21T03:39:46;13.50;34.50
22827;DHT22;11580;52.562;13.418;2023-03-21T03:42:22;13.50;34.20
22827;DHT22;11580;52.562;13.418;2023-03-21T03:44:57;13.50;34.60
22827;DHT22;11580;52.562;13.418;2023-03-21T03:47:28;13.70;35.10
22827;DHT22;11580;52.562;13.418;2023-03-21T03:50:08;13.40;34.60
22827;DHT22;11580;52.562;13.418;2023-03-21T03:52:44;13.40;34.60
22827;DHT22;11580;52.562;13.418;2023-03-21T03:55:20;13.40;34.90
22827;DHT22;11580;52.562;13.418;2023-03-21T03:57:51;13.50;35.10
22827;DHT22;11580;52.562;13.418;2023-03-21T04:00:19;13.40;36.00
22827;DHT22;11580;52.562;13.418;2023-03-21T04:02:49;13.50;35.50
22827;DHT22;11580;52.562;13.418;2023-03-21T04:05:21;13.50;35.60
22827;DHT22;11580;52.562;13.418;2023-03-21T04:07:49;13.50;35.80
22827;DHT22;11580;52.562;13.418;2023-03-21T04:10:21;13.50;35.80
22827;DHT22;11580;52.562;13.418;2023-03-21T04:12:48;13.50;35.70
22827;DHT22;11580;52.562;13.418;2023-03-21T04:15:21;13.50;35.90
22827;DHT22;11580;52.562;13.418;2023-03-21T04:17:54;13.70;36.10
22827;DHT22;11580;52.562;13.418;2023-03-21T04:20:22;13.50;36.70
22827;DHT22;11580;52.562;13.418;2023-03-21T04:22:50;13.50;36.10
22827;DHT22;11580;52.562;13.418;2023-03-21T04:25:20;13.50;36.20
22827;DHT22;11580;52.562;13.418;2023-03-21T04:27:49;13.50;36.20
22827;DHT22;11580;52.562;13.418;2023-03-21T04:30:42;13.50;36.40
22827;DHT22;11580;52.562;13.418;2023-03-21T04:33:15;13.50;36.40
22827;DHT22;11580;52.562;13.418;2023-03-21T04:35:50;13.50;36.50
22827;DHT22;11580;52.562;13.418;2023-03-21T04:38:21;13.50;36.50
22827;DHT22;11580;52.562;13.418;2023-03-21T04:40:50;13.50;36.40
22827;DHT22;11580;52.562;13.418;2023-03-21T04:43:17;13.50;36.20
22827;DHT22;11580;52.562;13.418;2023-03-21T04:45:45;13.50;36.40
22827;DHT22;11580;52.562;13.418;2023-03-21T04:48:12;13.50;36.40
22827;DHT22;11580;52.562;13.418;2023-03-21T04:50:43;13.60;36.50
22827;DHT22;11580;52.562;13.418;2023-03-21T04:53:11;13.50;36.50
22827;DHT22;11580;52.562;13.418;2023-03-21T04:55:39;13.50;36.50
22827;DHT22;11580;52.562;13.418;2023-03-21T04:58:07;13.50;37.20
22827;DHT22;11580;52.562;13.418;2023-03-21T05:00:34;13.50;36.50
22827;DHT22;11580;52.562;13.418;2023-03-21T05:03:04;13.50;36.70
22827;DHT22;11580;52.562;13.418;2023-03-21T05:05:34;13.50;36.70
22827;DHT22;11580;52.562;13.418;2023-03-21T05:08:02;13.50;36.90
22827;DHT22;11580;52.562;13.418;2023-03-21T05:10:31;13.50;37.00
22827;DHT22;11580;52.562;13.418;2023-03-21T05:12:58;13.50;37.10
22827;DHT22;11580;52.562;13.418;2023-03-21T05:15:28;13.50;37.90
22827;DHT22;11580;52.562;13.418;2023-03-21T05:17:55;13.50;37.90
22827;DHT22;11580;52.562;13.418;2023-03-21T05:20:24;13.50;37.20
22827;DHT22;11580;52.562;13.418;2023-03-21T05:22:51;13.50;37.20
22827;DHT22;11580;52.562;13.418;2023-03-21T05:25:19;13.70;37.50
22827;DHT22;11580;52.562;13.418;2023-03-21T05:28:09;13.50;37.40
22827;DHT22;11580;52.562;13.418;2023-03-21T05:30:39;13.50;37.40
22827;DHT22;11580;52.562;13.418;2023-03-21T05:33:06;13.50;37.20
22827;DHT22;11580;52.562;13.418;2023-03-21T05:35:33;13.50;37.50
22827;DHT22;11580;52.562;13.418;2023-03-21T05:38:05;13.50;37.50
22827;DHT22;11580;52.562;13.418;2023-03-21T05:40:45;13.60;37.60
22827;DHT22;11580;52.562;13.418;2023-03-21T05:43:13;13.60;37.50
22827;DHT22;11580;52.562;13.418;2023-03-21T05:45:41;13.60;38.40
22827;DHT22;11580;52.562;13.418;2023-03-21T05:48:09;13.60;37.60
22827;DHT22;11580;52.562;13.418;2023-03-21T05:50:53;13.70;37.80
22827;DHT22;11580;52.562;13.418;2023-03-21T05:53:22;13.70;38.70
22827;DHT22;11580;52.562;13.418;2023-03-21T05:55:49;13.70;38.00
22827;DHT22;11580;52.562;13.418;2023-03-21T05:58:36;13.70;38.00
22827;DHT22;11580;52.562;13.418;2023-03-21T06:01:05;13.80;38.90
22827;DHT22;11580;52.562;13.418;2023-03-21T06:03:35;13.90;38.00
22827;DHT22;11580;52.562;13.418;2023-03-21T06:06:07;13.90;38.20
22827;DHT22;11580;52.562;13.418;2023-03-21T06:08:39;14.00;38.10
22827;DHT22;11580;52.562;13.418;2023-03-21T06:11:15;14.10;38.20
22827;DHT22;11580;52.562;13.418;2023-03-21T06:13:50;14.10;37.50
22827;DHT22;11580;52.562;13.418;2023-03-21T06:16:22;14.20;38.60
22827;DHT22;11580;52.562;13.418;2023-03-21T06:18:49;14.20;37.80
22827;DHT22;11580;52.562;13.418;2023-03-21T06:21:34;14.30;37.90
22827;DHT22;11580;52.562;13.418;2023-03-21T06:24:01;14.30;37.90
22827;DHT22;11580;52.562;13.418;2023-03-21T06:26:29;14.30;37.90
22827;DHT22;11580;52.562;13.418;2023-03-21T06:28:56;14.40;38.00
22827;DHT22;11580;52.562;13.418;2023-03-21T06:31:25;14.40;37.90
22827;DHT22;11580;52.562;13.418;2023-03-21T06:33:59;14.40;37.80
22827;DHT22;11580;52.562;13.418;2023-03-21T06:36:26;14.50;38.10
22827;DHT22;11580;52.562;13.418;2023-03-21T06:38:54;14.50;37.80
22827;DHT22;11580;52.562;13.418;2023-03-21T06:41:22;14.60;38.50
22827;DHT22;11580;52.562;13.418;2023-03-21T06:43:57;14.60;37.70
22827;DHT22;11580;52.562;13.418;2023-03-21T06:46:26;14.60;37.60
22827;DHT22;11580;52.562;13.418;2023-03-21T06:48:53;14.70;37.30
22827;DHT22;11580;52.562;13.418;2023-03-21T06:51:20;14.70;37.60
22827;DHT22;11580;52.562;13.418;2023-03-21T06:54:06;14.70;38.20
22827;DHT22;11580;52.562;13.418;2023-03-21T06:56:46;14.80;37.80
22827;DHT22;11580;52.562;13.418;2023-03-21T06:59:20;14.80;37.90
22827;DHT22;11580;52.562;13.418;2023-03-21T07:02:04;14.90;38.10
22827;DHT22;11580;52.562;13.418;2023-03-21T07:04:35;14.90;38.00
22827;DHT22;11580;52.562;13.418;2023-03-21T07:07:04;15.00;38.20
22827;DHT22;11580;52.562;13.418;2023-03-21T07:09:31;15.00;38.80
22827;DHT22;11580;52.562;13.418;2023-03-21T07:12:03;15.00;38.00
22827;DHT22;11580;52.562;13.418;2023-03-21T07:14:43;15.10;38.00
22827;DHT22;11580;52.562;13.418;2023-03-21T07:17:12;15.10;37.90
22827;DHT22;11580;52.562;13.418;2023-03-21T07:19:39;15.10;37.60
22827;DHT22;11580;52.562;13.418;2023-03-21T07:22:06;15.20;37.90
22827;DHT22;11580;52.562;13.418;2023-03-21T07:24:34;15.20;37.90
22827;DHT22;11580;52.562;13.418;2023-03-21T07:27:01;15.20;37.80
22827;DHT22;11580;52.562;13.418;2023-03-21T07:29:28;15.20;37.80
22827;DHT22;11580;52.562;13.418;2023-03-21T07:31:55;15.30;38.00
22827;DHT22;11580;52.562;13.418;2023-03-21T07:34:24;15.30;38.60
22827;DHT22;11580;52.562;13.418;2023-03-21T07:36:56;15.30;37.60
22827;DHT22;11580;52.562;13.418;2023-03-21T07:39:24;15.30;37.90
22827;DHT22;11580;52.562;13.418;2023-03-21T07:41:52;15.40;38.10
22827;DHT22;11580;52.562;13.418;2023-03-21T07:44:28;15.40;38.00
22827;DHT22;11580;52.562;13.418;2023-03-21T07:47:01;15.40;38.00
22827;DHT22;11580;52.562;13.418;2023-03-21T07:49:30;15.40;37.90
22827;DHT22;11580;52.562;13.418;2023-03-21T07:51:57;15.50;37.70
22827;DHT22;11580;52.562;13.418;2023-03-21T07:54:26;15.50;37.90
22827;DHT22;11580;52.562;13.418;2023-03-21T07:56:54;15.50;37.90
22827;DHT22;11580;52.562;13.418;2023-03-21T07:59:22;15.50;37.80
22827;DHT22;11580;52.562;13.418;2023-03-21T08:01:49;15.50;37.70
22827;DHT22;11580;52.562;13.418;2023-03-21T08:04:16;15.60;37.80
22827;DHT22;11580;52.562;13.418;2023-03-21T08:06:45;15.60;37.70
22827;DHT22;11580;52.562;13.418;2023-03-21T08:09:12;15.60;37.50
22827;DHT22;11580;52.562;13.418;2023-03-21T08:11:40;15.60;37.70
22827;DHT22;11580;52.562;13.418;2023-03-21T08:14:07;15.60;37.70
22827;DHT22;11580;52.562;13.418;2023-03-21T08:16:34;15.60;37.70
22827;DHT22;11580;52.562;13.418;2023-03-21T08:19:01;15.60;37.60
22827;DHT22;11580;52.562;13.418;2023-03-21T08:21:29;15.70;37.90
22827;DHT22;11580;52.562;13.418;2023-03-21T08:23:57;15.70;38.00
22827;DHT22;11580;52.562;13.418;2023-03-21T08:26:24;15.70;37.80
22827;DHT22;11580;52.562;13.418;2023-03-21T08:28:51;15.70;37.90
22827;DHT22;11580;52.562;13.418;2023-03-21T08:31:19;15.80;37.90
22827;DHT22;11580;52.562;13.418;2023-03-21T08:33:46;15.80;37.80
22827;DHT22;11580;52.562;13.418;2023-03-21T08:36:18;15.80;37.80
22827;DHT22;11580;52.562;13.418;2023-03-21T08:38:45;15.90;38.00
22827;DHT22;11580;52.562;13.418;2023-03-21T08:41:14;15.90;38.10
22827;DHT22;11580;52.562;13.418;2023-03-21T08:43:41;16.00;38.00
22827;DHT22;11580;52.562;13.418;2023-03-21T08:46:09;16.00;38.00
22827;DHT22;11580;52.562;13.418;2023-03-21T08:48:36;16.00;38.20
22827;DHT22;11580;52.562;13.418;2023-03-21T08:51:04;16.00;38.30
22827;DHT22;11580;52.562;13.418;2023-03-21T08:53:32;16.10;38.50
22827;DHT22;11580;52.562;13.418;2023-03-21T08:55:59;16.10;38.70
22827;DHT22;11580;52.562;13.418;2023-03-21T08:58:27;16.20;38.90
22827;DHT22;11580;52.562;13.418;2023-03-21T09:00:55;16.20;38.80
22827;DHT22;11580;52.562;13.418;2023-03-21T09:03:22;16.30;39.10
22827;DHT22;11580;52.562;13.418;2023-03-21T09:05:51;16.30;39.00
22827;DHT22;11580;52.562;13.418;2023-03-21T09:08:19;16.40;38.60
22827;DHT22;11580;52.562;13.418;2023-03-21T09:10:48;16.40;38.90
22827;DHT22;11580;52.562;13.418;2023-03-21T09:13:15;16.50;38.90
22827;DHT22;11580;52.562;13.418;2023-03-21T09:15:44;16.50;38.70
22827;DHT22;11580;52.562;13.418;2023-03-21T09:18:11;16.60;38.30
22827;DHT22;11580;52.562;13.418;2023-03-21T09:20:39;16.60;38.30
22827;DHT22;11580;52.562;13.418;2023-03-21T09:23:07;16.60;38.10
22827;DHT22;11580;52.562;13.418;2023-03-21T09:25:35;16.60;38.10
22827;DHT22;11580;52.562;13.418;2023-03-21T09:28:03;16.60;38.80
22827;DHT22;11580;52.562;13.418;2023-03-21T09:30:31;16.60;38.10
22827;DHT22;11580;52.562;13.418;2023-03-21T09:33:02;16.70;38.30
22827;DHT22;11580;52.562;13.418;2023-03-21T09:35:31;16.70;38.20
22827;DHT22;11580;52.562;13.418;2023-03-21T09:37:59;16.70;39.10
22827;DHT22;11580;52.562;13.418;2023-03-21T09:43:37;16.80;37.30
22827;DHT22;11580;52.562;13.418;2023-03-21T09:46:20;16.90;37.40
22827;DHT22;11580;52.562;13.418;2023-03-21T09:48:56;17.00;38.00
22827;DHT22;11580;52.562;13.418;2023-03-21T09:51:30;17.10;38.00
22827;DHT22;11580;52.562;13.418;2023-03-21T09:54:06;17.10;37.80
22827;DHT22;11580;52.562;13.418;2023-03-21T09:56:40;17.20;37.80
22827;DHT22;11580;52.562;13.418;2023-03-21T09:59:19;17.30;37.70
22827;DHT22;11580;52.562;13.418;2023-03-21T10:01:49;17.40;36.80
22827;DHT22;11580;52.562;13.418;2023-03-21T10:04:18;17.40;38.70
22827;DHT22;11580;52.562;13.418;2023-03-21T10:06:52;17.50;37.50
22827;DHT22;11580;52.562;13.418;2023-03-21T10:09:24;17.50;36.90
22827;DHT22;11580;52.562;13.418;2023-03-21T10:11:56;17.60;38.30
22827;DHT22;11580;52.562;13.418;2023-03-21T10:14:30;17.70;37.10
22827;DHT22;11580;52.562;13.418;2023-03-21T10:17:03;17.70;37.00
22827;DHT22;11580;52.562;13.418;2023-03-21T10:19:43;17.80;37.40
22827;DHT22;11580;52.562;13.418;2023-03-21T10:22:12;17.80;36.80
22827;DHT22;11580;52.562;13.418;2023-03-21T10:24:40;17.80;37.00
22827;DHT22;11580;52.562;13.418;2023-03-21T10:27:09;17.80;36.60
22827;DHT22;11580;52.562;13.418;2023-03-21T10:29:40;17.80;36.20
22827;DHT22;11580;52.562;13.418;2023-03-21T10:32:11;17.90;37.00
22827;DHT22;11580;52.562;13.418;2023-03-21T10:34:43;17.90;36.40
22827;DHT22;11580;52.562;13.418;2023-03-21T10:37:14;17.90;36.70
22827;DHT22;11580;52.562;13.418;2023-03-21T10:39:43;18.00;37.50
22827;DHT22;11580;52.562;13.418;2023-03-21T10:42:17;18.00;36.70
22827;DHT22;11580;52.562;13.418;2023-03-21T10:44:49;18.10;36.50
22827;DHT22;11580;52.562;13.418;2023-03-21T10:47:20;18.10;36.50
22827;DHT22;11580;52.562;13.418;2023-03-21T10:49:50;18.20;36.40
22827;DHT22;11580;52.562;13.418;2023-03-21T10:52:20;18.30;36.40
22827;DHT22;11580;52.562;13.418;2023-03-21T10:54:49;18.40;36.10
22827;DHT22;11580;52.562;13.418;2023-03-21T10:57:30;18.60;36.50
22827;DHT22;11580;52.562;13.418;2023-03-21T10:59:58;18.70;36.10
22827;DHT22;11580;52.562;13.418;2023-03-21T11:02:34;18.80;36.30
22827;DHT22;11580;52.562;13.418;2023-03-21T11:05:06;18.80;35.40
22827;DHT22;11580;52.562;13.418;2023-03-21T11:07:43;18.80;34.70
22827;DHT22;11580;52.562;13.418;2023-03-21T11:10:12;18.80;35.60
22827;DHT22;11580;52.562;13.418;2023-03-21T11:12:46;18.80;34.80
22827;DHT22;11580;52.562;13.418;2023-03-21T11:15:25;18.80;34.20
22827;DHT22;11580;52.562;13.418;2023-03-21T11:17:55;18.80;34.20
22827;DHT22;11580;52.562;13.418;2023-03-21T11:20:25;18.80;35.50
22827;DHT22;11580;52.562;13.418;2023-03-21T11:23:02;18.70;34.50
22827;DHT22;11580;52.562;13.418;2023-03-21T11:25:34;18.70;34.20
22827;DHT22;11580;52.562;13.418;2023-03-21T11:28:07;18.70;34.40
22827;DHT22;11580;52.562;13.418;2023-03-21T11:30:48;18.70;34.20
22827;DHT22;11580;52.562;13.418;2023-03-21T11:33:19;18.70;33.60
22827;DHT22;11580;52.562;13.418;2023-03-21T11:36:00;18.60;35.40
22827;DHT22;11580;52.562;13.418;2023-03-21T11:38:31;18.60;34.20
22827;DHT22;11580;52.562;13.418;2023-03-21T11:41:03;18.60;35.60
22827;DHT22;11580;52.562;13.418;2023-03-21T11:43:34;18.50;35.30
22827;DHT22;11580;52.562;13.418;2023-03-21T11:46:06;18.50;34.50
22827;DHT22;11580;52.562;13.418;2023-03-21T11:48:38;18.50;34.50
22827;DHT22;11580;52.562;13.418;2023-03-21T11:51:17;18.50;34.40
22827;DHT22;11580;52.562;13.418;2023-03-21T11:53:58;18.50;33.70
22827;DHT22;11580;52.562;13.418;2023-03-21T11:56:34;18.50;33.90
22827;DHT22;11580;52.562;13.418;2023-03-21T11:59:26;18.60;35.20
22827;DHT22;11580;52.562;13.418;2023-03-21T12:02:22;18.60;33.90
22827;DHT22;11580;52.562;13.418;2023-03-21T12:05:04;18.70;33.80
22827;DHT22;11580;52.562;13.418;2023-03-21T12:07:51;18.80;35.40
22827;DHT22;11580;52.562;13.418;2023-03-21T12:10:30;18.90;34.00
22827;DHT22;11580;52.562;13.418;2023-03-21T12:13:14;19.00;34.40
22827;DHT22;11580;52.562;13.418;2023-03-21T12:15:59;19.10;33.50
22827;DHT22;11580;52.562;13.418;2023-03-21T12:18:57;19.20;33.60
22827;DHT22;11580;52.562;13.418;2023-03-21T12:21:36;19.20;33.20
22827;DHT22;11580;52.562;13.418;2023-03-21T12:24:12;19.30;34.40
22827;DHT22;11580;52.562;13.418;2023-03-21T12:26:48;19.30;33.60
22827;DHT22;11580;52.562;13.418;2023-03-21T12:29:39;19.30;34.10
22827;DHT22;11580;52.562;13.418;2023-03-21T12:32:24;19.40;33.40
22827;DHT22;11580;52.562;13.418;2023-03-21T12:35:08;19.50;34.20
22827;DHT22;11580;52.562;13.418;2023-03-21T12:37:51;19.50;33.20
22827;DHT22;11580;52.562;13.418;2023-03-21T12:40:38;19.60;32.80
22827;DHT22;11580;52.562;13.418;2023-03-21T12:43:26;19.70;32.60
22827;DHT22;11580;52.562;13.418;2023-03-21T12:46:00;19.70;32.60
22827;DHT22;11580;52.562;13.418;2023-03-21T12:48:37;19.70;33.90
22827;DHT22;11580;52.562;13.418;2023-03-21T12:51:11;19.70;32.80
22827;DHT22;11580;52.562;13.418;2023-03-21T12:54:04;19.80;33.10
22827;DHT22;11580;52.562;13.418;2023-03-21T12:56:43;19.80;32.50
22827;DHT22;11580;52.562;13.418;2023-03-21T12:59:22;19.90;32.80
22827;DHT22;11580;52.562;13.418;2023-03-21T13:01:59;19.90;32.50
22827;DHT22;11580;52.562;13.418;2023-03-21T13:04:44;19.90;32.70
22827;DHT22;11580;52.562;13.418;2023-03-21T13:07:20;19.90;32.70
22827;DHT22;11580;52.562;13.418;2023-03-21T13:09:50;20.00;33.00
22827;DHT22;11580;52.562;13.418;2023-03-21T13:12:44;20.00;33.50
22827;DHT22;11580;52.562;13.418;2023-03-21T13:15:36;20.00;32.00
22827;DHT22;11580;52.562;13.418;2023-03-21T13:18:18;20.00;31.90
22827;DHT22;11580;52.562;13.418;2023-03-21T13:20:56;20.00;33.30
22827;DHT22;11580;52.562;13.418;2023-03-21T13:23:33;20.00;33.90
22827;DHT22;11580;52.562;13.418;2023-03-21T13:26:02;20.00;31.80
22827;DHT22;11580;52.562;13.418;2023-03-21T13:28:39;20.00;33.00
22827;DHT22;11580;52.562;13.418;2023-03-21T13:31:16;19.90;32.00
22827;DHT22;11580;52.562;13.418;2023-03-21T13:33:46;19.80;31.40
22827;DHT22;11580;52.562;13.418;2023-03-21T13:36:17;19.70;32.60
22827;DHT22;11580;52.562;13.418;2023-03-21T13:38:52;19.60;32.50
22827;DHT22;11580;52.562;13.418;2023-03-21T13:41:29;19.50;32.60
22827;DHT22;11580;52.562;13.418;2023-03-21T13:44:15;19.40;32.30
22827;DHT22;11580;52.562;13.418;2023-03-21T13:46:53;19.30;31.60
22827;DHT22;11580;52.562;13.418;2023-03-21T13:49:27;19.30;33.10
22827;DHT22;11580;52.562;13.418;2023-03-21T13:51:58;19.20;32.90
22827;DHT22;11580;52.562;13.418;2023-03-21T13:54:30;19.10;32.90
22827;DHT22;11580;52.562;13.418;2023-03-21T13:57:36;19.00;32.80
22827;DHT22;11580;52.562;13.418;2023-03-21T14:00:18;19.00;32.40
22827;DHT22;11580;52.562;13.418;2023-03-21T14:02:56;18.90;32.20
22827;DHT22;11580;52.562;13.418;2023-03-21T14:05:31;18.90;32.50
22827;DHT22;11580;52.562;13.418;2023-03-21T14:08:02;18.80;33.60
22827;DHT22;11580;52.562;13.418;2023-03-21T14:10:34;18.80;33.40
22827;DHT22;11580;52.562;13.418;2023-03-21T14:13:04;18.80;33.70
22827;DHT22;11580;52.562;13.418;2023-03-21T14:15:41;18.80;33.60
22827;DHT22;11580;52.562;13.418;2023-03-21T14:18:14;18.80;32.90
22827;DHT22;11580;52.562;13.418;2023-03-21T14:20:42;18.80;33.20
22827;DHT22;11580;52.562;13.418;2023-03-21T14:23:14;18.80;34.70
22827;DHT22;11580;52.562;13.418;2023-03-21T14:25:43;18.70;34.10
22827;DHT22;11580;52.562;13.418;2023-03-21T14:28:14;18.70;33.90
22827;DHT22;11580;52.562;13.418;2023-03-21T14:30:49;18.70;33.70
22827;DHT22;11580;52.562;13.418;2023-03-21T14:33:24;18.70;33.60
22827;DHT22;11580;52.562;13.418;2023-03-21T14:35:56;18.70;34.00
22827;DHT22;11580;52.562;13.418;2023-03-21T14:38:32;18.70;34.10
22827;DHT22;11580;52.562;13.418;2023-03-21T14:41:01;18.60;33.90
22827;DHT22;11580;52.562;13.418;2023-03-21T14:43:29;18.60;34.80
22827;DHT22;11580;52.562;13.418;2023-03-21T14:46:00;18.60;35.10
22827;DHT22;11580;52.562;13.418;2023-03-21T14:48:32;18.60;35.10
22827;DHT22;11580;52.562;13.418;2023-03-21T14:51:02;18.60;34.60
22827;DHT22;11580;52.562;13.418;2023-03-21T14:53:36;18.60;35.60
22827;DHT22;11580;52.562;13.418;2023-03-21T14:56:07;18.70;35.60
22827;DHT22;11580;52.562;13.418;2023-03-21T14:58:38;18.70;35.30
22827;DHT22;11580;52.562;13.418;2023-03-21T15:01:13;18.70;35.40
22827;DHT22;11580;52.562;13.418;2023-03-21T15:03:43;18.70;34.40
22827;DHT22;11580;52.562;13.418;2023-03-21T15:06:13;18.80;35.60
22827;DHT22;11580;52.562;13.418;2023-03-21T15:08:53;18.80;35.60
22827;DHT22;11580;52.562;13.418;2023-03-21T15:11:28;18.80;34.20
22827;DHT22;11580;52.562;13.418;2023-03-21T15:13:59;18.90;34.20
22827;DHT22;11580;52.562;13.418;2023-03-21T15:16:30;18.90;34.90
22827;DHT22;11580;52.562;13.418;2023-03-21T15:18:58;19.00;34.70
22827;DHT22;11580;52.562;13.418;2023-03-21T15:21:32;19.00;35.70
22827;DHT22;11580;52.562;13.418;2023-03-21T15:24:08;19.00;34.60
22827;DHT22;11580;52.562;13.418;2023-03-21T15:26:43;19.00;34.30
22827;DHT22;11580;52.562;13.418;2023-03-21T15:29:13;19.10;35.00
22827;DHT22;11580;52.562;13.418;2023-03-21T15:31:42;19.00;34.50
22827;DHT22;11580;52.562;13.418;2023-03-21T15:34:18;19.00;34.30
22827;DHT22;11580;52.562;13.418;2023-03-21T15:36:48;19.00;33.80
22827;DHT22;11580;52.562;13.418;2023-03-21T15:39:21;19.00;34.60
22827;DHT22;11580;52.562;13.418;2023-03-21T15:42:02;19.00;34.80
22827;DHT22;11580;52.562;13.418;2023-03-21T15:44:33;18.90;33.60
22827;DHT22;11580;52.562;13.418;2023-03-21T15:47:02;18.90;34.70
22827;DHT22;11580;52.562;13.418;2023-03-21T15:49:31;18.90;34.50
22827;DHT22;11580;52.562;13.418;2023-03-21T15:52:05;18.90;34.50
22827;DHT22;11580;52.562;13.418;2023-03-21T15:54:42;18.80;33.80
22827;DHT22;11580;52.562;13.418;2023-03-21T15:57:20;18.80;34.00